METAR stanice u blizini

 

LYBE - Beograd / Surčin, Srbija
Ažurirano: 31/05/2020 01:30
Vedro
Vedro
 Pravac vetra Z
Vetar: Z 17 km/h
Temperatura: 10°C
Osećaj hladnoće: 8°C
Tačka rose: 7°C
Vlažnost: 82%
Pritisak: 1016 hPa
Pregled: Vedro
Vidljivost: greater than 10 km
2020/05/30 23:30 LYBE 302330Z 27009KT CAVOK 10/07 Q1016 NOSIG
LYBT - Beograd / Batajnica, Srbija
Ažurirano: 31/05/2020 01:30
Vedro
Vedro
 Pravac vetra ZJZ
Vetar: ZJZ 9 km/h
Temperatura: 8°C
Osećaj hladnoće: 6°C
Tačka rose: 7°C
Vlažnost: 93%
Pritisak: 1015 hPa
Pregled: Vedro
Vidljivost: greater than 10 km
2020/05/30 23:30 LYBT 302330Z 24005KT CAVOK 08/07 Q1015 NOSIG
LYVR - Vršac, Srbija
Ažurirano: 31/05/2020 01:30
Vedro
Vedro
 Pravac vetra J
Vetar: J 6 km/h
Temperatura: 10°C
Tačka rose: 9°C
Vlažnost: 94%
Pritisak: 1014 hPa
Pregled: Vedro
Vidljivost: greater than 10 km
2020/05/30 23:30 LYVR 302330Z AUTO 19003KT CAVOK 10/09 Q1014
 
LYKV - Lađevci, Srbija
Ažurirano: 31/05/2020 01:30
Partly Cloudy
Partly Cloudy
 Pravac vetra varies
Vetar: varies 2 km/h
Temperatura: 12°C
Tačka rose: 12°C
Vlažnost: 100%
Pritisak: 1016 hPa
Oblaci: Partly Cloudy
Vidljivost: 10 km
Cloud details: Partly Cloudy 1311 m
2020/05/30 23:30 LYKV 302330Z VRB01KT 9999 SCT043 12/12 Q1016 NOSIG
LYNI - Niš, Srbija
Ažurirano: 31/05/2020 01:30
Partly Cloudy
Partly Cloudy
 Pravac vetra IJI
Vetar: IJI 4 km/h
Temperatura: 12°C
Tačka rose: 12°C
Vlažnost: 100%
Pritisak: 1016 hPa
Oblaci: Partly Cloudy
Vidljivost: 10 km
Cloud details: Few Clouds 518 m
Partly Cloudy 1372 m
2020/05/30 23:30 LYNI 302330Z 12002KT 9999 FEW017 SCT045 12/12 Q1016 NOSIG
BKPR - Priština, Srbija
Ažurirano: 31/05/2020 01:30
Slaba kiša, Pretežno oblačno
Slaba kiša, Pretežno oblačno
 Pravac vetra varies
Vetar: varies 6 km/h
Temperatura: 11°C
Tačka rose: 8°C
Vlažnost: 82%
Pritisak: 1016 hPa
Pregled: Light Rain
Oblaci: Mostly Cloudy
Vidljivost: 10 km
Cloud details: Mostly Cloudy 1829 m
2020/05/30 23:30 BKPR 302330Z VRB03KT 9999 -RA BKN060 11/08 Q1016 NOSIG
 
LHPP - Pecs / Pogany, Hungary
Ažurirano: 30/05/2020 19:45
NOT Current
Vedro
Vedro
 Pravac vetra SZ
Vetar: SZ 11 km/h
Temperatura: 15°C
Tačka rose: 4°C
Vlažnost: 48%
Pritisak: 1016 hPa
Pregled: Vedro
Vidljivost: greater than 10 km
2020/05/30 17:45 LHPP 301745Z 32006KT CAVOK 15/04 Q1016
LHUD - Szeged, Hungary
Ažurirano: 04/07/2019 01:45
NOT Current
Vedro
Vedro
 Pravac vetra S
Vetar: S 7 km/h
Temperatura: 18°C
Tačka rose: 13°C
Vlažnost: 73%
Pritisak: 1019 hPa
Pregled: Vedro
Vidljivost: greater than 10 km
2019/07/03 23:45 LHUD 032345Z 35004KT CAVOK 18/13 Q1019
LRTR - Timisoara, Romania
Ažurirano: 31/05/2020 01:30
Vedro
Vedro
 Pravac vetra JJI
Vetar: JJI 7 km/h
Temperatura: 10°C
Osećaj hladnoće: 9°C
Tačka rose: 8°C
Vlažnost: 88%
Pritisak: 1014 hPa
Pregled: Vedro
Vidljivost: greater than 10 km
2020/05/30 23:30 LRTR 302330Z 16004KT CAVOK 10/08 Q1014
 
LRCV - Craiova, Romania
Ažurirano: 31/05/2020 01:30
Vedro
Vedro
 Pravac vetra Z
Vetar: Z 22 km/h
Temperatura: 11°C
Tačka rose: 9°C
Vlažnost: 88%
Pritisak: 1012 hPa
Pregled: Vedro
Vidljivost: greater than 10 km
2020/05/30 23:30 LRCV 302330Z 28012KT CAVOK 11/09 Q1012
LBSF - Sofia, Bulgaria
Ažurirano: 31/05/2020 01:30
Few Clouds
Few Clouds
 Pravac vetra Z
Vetar: Z 9 km/h
Temperatura: 11°C
Tačka rose: 8°C
Vlažnost: 82%
Pritisak: 1016 hPa
Oblaci: Few Clouds
Vidljivost: 10 km
Cloud details: Few Clouds 2347 m
2020/05/30 23:30 LBSF 302330Z 28005KT 9999 FEW077 11/08 Q1016 NOSIG
LWSK - Skoplje, Makedonija
Ažurirano: 31/05/2020 01:00
Mostly Cloudy
Mostly Cloudy
 Pravac vetra calm
Vetar: Tišina
Temperatura: 11°C
Tačka rose: 9°C
Vlažnost: 88%
Pritisak: 1016 hPa
Oblaci: Mostly Cloudy
Vidljivost: 10 km
Cloud details: Few Clouds 1311 m
Mostly Cloudy 3048 m
2020/05/30 23:00 LWSK 302300Z 00000KT 9999 FEW043 BKN100 11/09 Q1016 NOSIG
 
LYPG - Podgorica, Crna Gora
Ažurirano: 31/05/2020 01:30
Mostly Cloudy
Mostly Cloudy
 Pravac vetra varies
Vetar: varies 2 km/h
Temperatura: 15°C
Tačka rose: 12°C
Vlažnost: 82%
Pritisak: 1015 hPa
Oblaci: Mostly Cloudy
Vidljivost: 10 km
Cloud details: Few Clouds 1219 m
Mostly Cloudy 2438 m
2020/05/30 23:30 LYPG 302330Z VRB01KT 9999 FEW040 BKN080 15/12 Q1015 NOSIG
LQSA - Sarajevo, Bosna i Hercegovina
Ažurirano: 30/05/2020 15:00
NOT Current
Partly Cloudy
Partly Cloudy
 Pravac vetra SSZ
Vetar: SSZ 17 km/h
Temperatura: 16°C
Tačka rose: 10°C
Vlažnost: 68%
Pritisak: 1016 hPa
Oblaci: Partly Cloudy
Vidljivost: 10 km
Cloud details: Few Clouds 914 m
Partly Cloudy 1372 m
2020/05/30 13:00 LQSA 301300Z 34009KT 300V050 9999 FEW030 SCT045 16/10 Q1016 NOSIG
LDOS - Osijek, Hrvatksa
Ažurirano: 31/05/2020 01:30
Vedro
Vedro
 Pravac vetra Z
Vetar: Z 17 km/h
Temperatura: 9°C
Osećaj hladnoće: 7°C
Tačka rose: 6°C
Vlažnost: 82%
Pritisak: 1015 hPa
Pregled: Vedro
Vidljivost: greater than 10 km
2020/05/30 23:30 LDOS 302330Z 28009KT CAVOK 09/06 Q1015